Time;durP1;ratioP1;P1;durP2;ratioP2;P2;SDS_P1;SDS_P2;PMS_P1;PMS_P2;Temp;Humidity;BMP_temperature;BMP_pressure;BME280_temperature;BME280_humidity;BME280_pressure;Samples;Min_cycle;Max_cycle;Signal;HPM_P1;HPM_P2
2023/09/10 00:00:17;;;;;;;49.47;25.95;;;;;;;;;;5034220;28;20108;-66
2023/09/10 00:02:42;;;;;;;41.28;25.60;;;;;;;;;;5030400;28;20168;-67
2023/09/10 00:05:07;;;;;;;46.13;24.98;;;;;;;;;;5032059;28;20026;-67
2023/09/10 00:07:33;;;;;;;45.67;26.20;;;;;;;;;;5032278;28;20021;-66
2023/09/10 00:09:58;;;;;;;40.88;24.70;;;;;;;;;;5032020;28;20079;-67
2023/09/10 00:12:23;;;;;;;35.40;23.35;;;;;;;;;;5030944;28;20021;-66
2023/09/10 00:14:48;;;;;;;45.42;25.70;;;;;;;;;;5032179;28;20029;-66
2023/09/10 00:17:13;;;;;;;50.22;27.13;;;;;;;;;;5018718;28;20032;-66
2023/09/10 00:19:39;;;;;;;43.70;25.77;;;;;;;;;;5032312;28;20525;-67
2023/09/10 00:22:04;;;;;;;43.33;25.73;;;;;;;;;;5032030;28;20018;-66
2023/09/10 00:24:29;;;;;;;48.08;25.48;;;;;;;;;;5031622;28;20333;-67
2023/09/10 00:26:54;;;;;;;44.15;24.05;;;;;;;;;;5030497;28;20053;-67
2023/09/10 00:29:20;;;;;;;44.50;24.70;;;;;;;;;;5025406;28;20124;-67
2023/09/10 00:31:45;;;;;;;40.10;24.13;;;;;;;;;;5030297;28;20017;-68
2023/09/10 00:34:12;;;;;;;35.72;22.25;;;;;;;;;;5031512;28;20029;-66
2023/09/10 00:36:38;;;;;;;39.88;23.50;;;;;;;;;;5029896;28;20544;-67
2023/09/10 00:39:03;;;;;;;36.92;22.17;;;;;;;;;;5030560;28;20021;-66
2023/09/10 00:41:28;;;;;;;37.22;22.98;;;;;;;;;;5030185;28;20034;-67
2023/09/10 00:43:53;;;;;;;38.03;22.00;;;;;;;;;;5027044;28;20387;-68
2023/09/10 00:46:19;;;;;;;37.97;23.00;;;;;;;;;;5024136;28;20368;-68
2023/09/10 00:48:44;;;;;;;41.45;22.75;;;;;;;;;;5031639;28;20478;-67
2023/09/10 00:51:10;;;;;;;37.10;21.50;;;;;;;;;;5031457;28;20025;-68
2023/09/10 00:53:35;;;;;;;35.25;20.45;;;;;;;;;;5031801;28;20013;-67
2023/09/10 00:56:00;;;;;;;31.48;20.33;;;;;;;;;;5030729;28;20049;-65
2023/09/10 00:58:26;;;;;;;36.42;21.95;;;;;;;;;;5027007;28;20026;-66
2023/09/10 01:00:52;;;;;;;42.38;22.48;;;;;;;;;;5023443;28;20486;-66
2023/09/10 01:03:18;;;;;;;33.45;20.63;;;;;;;;;;5029661;28;20511;-66
2023/09/10 01:05:43;;;;;;;37.05;22.27;;;;;;;;;;5030586;28;20032;-64
2023/09/10 01:08:08;;;;;;;36.60;22.00;;;;;;;;;;5029138;28;20083;-66
2023/09/10 01:10:53;;;;;;;53.75;22.33;;;;;;;;;;5029907;28;20025;-67
2023/09/10 01:13:30;;;;;;;38.03;17.52;;;;;;;;;;5031056;28;20017;-67
2023/09/10 01:15:58;;;;;;;39.85;19.13;;;;;;;;;;5031455;28;20025;-67
2023/09/10 01:18:28;;;;;;;28.20;19.15;;;;;;;;;;5043023;22;20046;-71
2023/09/10 01:21:05;;;;;;;33.60;18.88;;;;;;;;;;5029372;28;20033;-72
2023/09/10 01:23:48;;;;;;;34.83;17.77;;;;;;;;;;5023876;28;20037;-71
2023/09/10 01:26:13;;;;;;;38.42;18.92;;;;;;;;;;5028556;28;20021;-73
2023/09/10 01:28:39;;;;;;;40.58;17.33;;;;;;;;;;5029240;28;20542;-70
2023/09/10 01:31:04;;;;;;;34.90;16.67;;;;;;;;;;5029794;28;20576;-73
2023/09/10 01:33:29;;;;;;;26.67;16.92;;;;;;;;;;5029009;28;20017;-69
2023/09/10 01:36:13;;;;;;;29.85;16.10;;;;;;;;;;5028518;28;20040;-72
2023/09/10 01:38:46;;;;;;;25.90;13.63;;;;;;;;;;5028475;28;20026;-72
2023/09/10 01:41:16;;;;;;;27.42;14.93;;;;;;;;;;5023325;28;20104;-71
2023/09/10 01:43:41;;;;;;;33.03;15.63;;;;;;;;;;5028958;28;20386;-72
2023/09/10 01:46:07;;;;;;;24.83;15.05;;;;;;;;;;5029325;28;20032;-72
2023/09/10 01:48:33;;;;;;;35.95;14.05;;;;;;;;;;5028619;28;20542;-69
2023/09/10 01:50:58;;;;;;;23.65;14.13;;;;;;;;;;5029147;28;20631;-71
2023/09/10 01:53:23;;;;;;;31.23;14.77;;;;;;;;;;5028559;28;20022;-70
2023/09/10 01:55:48;;;;;;;25.60;14.32;;;;;;;;;;5029404;28;20032;-72
2023/09/10 01:58:14;;;;;;;22.88;14.98;;;;;;;;;;5028645;28;20447;-73
2023/09/10 02:00:40;;;;;;;27.98;14.88;;;;;;;;;;5028111;28;20048;-71
2023/09/10 02:03:05;;;;;;;29.48;15.50;;;;;;;;;;5029651;28;20427;-71
2023/09/10 02:05:30;;;;;;;26.67;16.30;;;;;;;;;;5029768;28;20033;-72
2023/09/10 02:07:56;;;;;;;26.02;16.10;;;;;;;;;;5028393;28;20032;-72
2023/09/10 02:10:21;;;;;;;26.65;15.05;;;;;;;;;;5029804;28;20036;-71
2023/09/10 02:12:46;;;;;;;31.80;15.32;;;;;;;;;;5023955;28;20018;-71
2023/09/10 02:15:12;;;;;;;23.02;15.13;;;;;;;;;;5028490;28;20439;-72
2023/09/10 02:17:38;;;;;;;32.95;14.70;;;;;;;;;;5027555;28;20040;-72
2023/09/10 02:20:09;;;;;;;25.42;14.13;;;;;;;;;;5028301;28;20421;-71
2023/09/10 02:22:34;;;;;;;25.08;13.98;;;;;;;;;;5029108;28;20029;-71
2023/09/10 02:25:00;;;;;;;23.45;13.25;;;;;;;;;;5029873;28;20117;-71
2023/09/10 02:27:25;;;;;;;28.23;13.52;;;;;;;;;;5028732;28;20144;-72
2023/09/10 02:29:51;;;;;;;33.90;14.98;;;;;;;;;;5029452;28;20041;-71
2023/09/10 02:32:16;;;;;;;23.55;15.07;;;;;;;;;;5029284;28;20040;-71
2023/09/10 02:34:41;;;;;;;29.15;14.68;;;;;;;;;;5029372;28;20013;-69
2023/09/10 02:37:06;;;;;;;26.23;15.55;;;;;;;;;;5029507;28;20423;-73
2023/09/10 02:39:32;;;;;;;25.90;15.02;;;;;;;;;;5029321;28;20026;-68
2023/09/10 02:41:57;;;;;;;24.95;15.52;;;;;;;;;;5029073;28;20017;-71
2023/09/10 02:44:22;;;;;;;27.77;14.88;;;;;;;;;;5029324;28;20013;-70
2023/09/10 02:46:47;;;;;;;29.33;14.93;;;;;;;;;;5028852;28;20435;-71
2023/09/10 02:49:12;;;;;;;27.42;16.50;;;;;;;;;;5028927;28;20025;-71
2023/09/10 02:51:38;;;;;;;36.83;18.35;;;;;;;;;;5029844;28;20013;-71
2023/09/10 02:54:03;;;;;;;35.75;19.23;;;;;;;;;;5029590;28;20029;-70
2023/09/10 02:56:28;;;;;;;30.20;18.13;;;;;;;;;;5029062;28;20036;-71
2023/09/10 02:58:53;;;;;;;28.48;17.77;;;;;;;;;;5029110;28;20096;-68
2023/09/10 03:01:18;;;;;;;24.27;15.88;;;;;;;;;;5029215;28;20038;-68
2023/09/10 03:03:44;;;;;;;24.67;15.65;;;;;;;;;;5029674;28;20171;-71
2023/09/10 03:06:12;;;;;;;23.00;14.57;;;;;;;;;;5028880;28;20602;-71
2023/09/10 03:08:38;;;;;;;38.45;14.32;;;;;;;;;;5027808;28;20404;-71
2023/09/10 03:11:04;;;;;;;24.00;14.65;;;;;;;;;;5026456;28;20021;-69
2023/09/10 03:13:29;;;;;;;29.83;14.88;;;;;;;;;;5028057;28;20111;-72
2023/09/10 03:15:54;;;;;;;27.70;13.93;;;;;;;;;;5028765;28;20474;-71
2023/09/10 03:18:19;;;;;;;26.08;14.32;;;;;;;;;;5027207;28;20030;-69
2023/09/10 03:20:45;;;;;;;29.27;13.73;;;;;;;;;;5031667;28;20116;-72
2023/09/10 03:23:10;;;;;;;23.85;13.43;;;;;;;;;;5032807;28;20036;-71
2023/09/10 03:25:37;;;;;;;25.88;13.38;;;;;;;;;;5033130;28;20087;-71
2023/09/10 03:28:02;;;;;;;22.98;13.63;;;;;;;;;;5032798;28;20502;-71
2023/09/10 03:30:27;;;;;;;20.80;12.23;;;;;;;;;;5032856;28;20025;-73
2023/09/10 03:32:52;;;;;;;22.10;12.07;;;;;;;;;;5031646;28;20045;-73
2023/09/10 03:35:18;;;;;;;30.35;13.05;;;;;;;;;;5031234;28;20072;-74
2023/09/10 03:37:43;;;;;;;20.70;13.27;;;;;;;;;;5030446;28;20447;-72
2023/09/10 03:40:08;;;;;;;21.88;12.18;;;;;;;;;;5030558;28;20022;-73
2023/09/10 03:42:34;;;;;;;24.50;13.00;;;;;;;;;;5031296;28;20017;-74
2023/09/10 03:44:59;;;;;;;30.65;13.52;;;;;;;;;;5030471;28;20370;-73
2023/09/10 03:47:27;;;;;;;20.48;12.70;;;;;;;;;;5030845;28;20045;-73
2023/09/10 03:49:53;;;;;;;28.85;13.70;;;;;;;;;;5030933;28;20044;-71
2023/09/10 03:52:20;;;;;;;26.60;15.07;;;;;;;;;;5030888;28;20017;-72
2023/09/10 03:54:45;;;;;;;21.90;13.55;;;;;;;;;;5031025;28;20021;-74
2023/09/10 03:57:11;;;;;;;28.92;16.02;;;;;;;;;;5030554;28;20021;-73
2023/09/10 03:59:36;;;;;;;32.55;16.77;;;;;;;;;;5029630;28;20346;-71
2023/09/10 04:02:01;;;;;;;28.42;16.40;;;;;;;;;;5030747;28;20025;-71
2023/09/10 04:04:26;;;;;;;31.05;16.05;;;;;;;;;;5030178;28;20028;-71
2023/09/10 04:06:52;;;;;;;27.95;16.17;;;;;;;;;;5031191;28;20032;-72
2023/09/10 04:09:17;;;;;;;30.58;16.50;;;;;;;;;;5030877;28;20041;-73
2023/09/10 04:11:42;;;;;;;32.20;15.13;;;;;;;;;;5032653;28;20451;-70
2023/09/10 04:14:07;;;;;;;27.75;15.00;;;;;;;;;;5032973;28;20497;-69
2023/09/10 04:16:33;;;;;;;28.88;14.57;;;;;;;;;;5019232;28;20025;-73
2023/09/10 04:18:58;;;;;;;26.67;14.68;;;;;;;;;;5031134;28;20068;-70
2023/09/10 04:21:23;;;;;;;19.27;13.75;;;;;;;;;;5031331;28;20068;-73
2023/09/10 04:23:48;;;;;;;19.98;13.25;;;;;;;;;;5030843;28;20494;-72
2023/09/10 04:26:14;;;;;;;23.90;12.93;;;;;;;;;;5031065;28;20021;-72
2023/09/10 04:28:40;;;;;;;20.38;12.18;;;;;;;;;;5030697;28;20026;-72
2023/09/10 04:31:05;;;;;;;25.42;12.48;;;;;;;;;;5030372;28;20105;-71
2023/09/10 04:33:30;;;;;;;18.67;10.85;;;;;;;;;;5030913;28;20036;-69
2023/09/10 04:36:01;;;;;;;22.70;11.55;;;;;;;;;;5030866;28;20032;-71
2023/09/10 04:38:26;;;;;;;18.25;10.90;;;;;;;;;;5030327;28;20021;-72
2023/09/10 04:40:51;;;;;;;19.30;11.75;;;;;;;;;;5022075;28;20099;-71
2023/09/10 04:43:16;;;;;;;20.48;11.82;;;;;;;;;;5030192;28;20025;-72
2023/09/10 04:45:42;;;;;;;20.83;11.35;;;;;;;;;;5030762;28;20017;-73
2023/09/10 04:48:07;;;;;;;20.35;11.20;;;;;;;;;;5029911;28;20033;-69
2023/09/10 04:50:32;;;;;;;17.85;11.10;;;;;;;;;;5030127;28;20017;-72
2023/09/10 04:52:59;;;;;;;22.10;11.02;;;;;;;;;;5029924;28;20373;-72
2023/09/10 04:55:24;;;;;;;25.55;12.73;;;;;;;;;;5030425;28;20029;-71
2023/09/10 04:57:50;;;;;;;21.30;12.32;;;;;;;;;;5029666;28;20023;-69
2023/09/10 05:00:15;;;;;;;23.05;11.25;;;;;;;;;;5025267;28;20052;-72
2023/09/10 05:02:40;;;;;;;31.58;12.57;;;;;;;;;;5024669;28;20108;-73
2023/09/10 05:05:05;;;;;;;17.95;11.32;;;;;;;;;;5028842;28;20017;-73
2023/09/10 05:07:31;;;;;;;26.55;12.20;;;;;;;;;;5026880;28;20411;-73
2023/09/10 05:09:56;;;;;;;20.65;10.80;;;;;;;;;;5029407;28;20418;-71
2023/09/10 05:12:21;;;;;;;21.55;11.02;;;;;;;;;;5029602;28;20332;-71
2023/09/10 05:14:47;;;;;;;21.90;11.05;;;;;;;;;;5028706;28;20394;-73
2023/09/10 05:17:12;;;;;;;21.42;12.88;;;;;;;;;;5029368;28;20050;-72
2023/09/10 05:19:38;;;;;;;18.98;12.45;;;;;;;;;;5029235;28;20060;-73
2023/09/10 05:22:03;;;;;;;21.55;13.13;;;;;;;;;;5026860;28;20458;-78
2023/09/10 05:24:28;;;;;;;21.77;11.77;;;;;;;;;;5021346;28;20018;-73
2023/09/10 05:26:53;;;;;;;22.02;13.07;;;;;;;;;;5024170;28;20018;-76
2023/09/10 05:29:19;;;;;;;29.13;17.90;;;;;;;;;;5022425;28;20153;-74
2023/09/10 05:31:44;;;;;;;21.80;11.93;;;;;;;;;;5022440;28;20010;-71
2023/09/10 05:34:09;;;;;;;27.20;11.48;;;;;;;;;;5022410;28;20056;-70
2023/09/10 05:36:34;;;;;;;23.65;13.07;;;;;;;;;;5018969;28;20024;-72
2023/09/10 05:39:00;;;;;;;31.02;16.42;;;;;;;;;;5020707;28;20414;-72
2023/09/10 05:41:25;;;;;;;22.58;15.32;;;;;;;;;;5024749;28;20110;-70
2023/09/10 05:43:51;;;;;;;20.80;14.00;;;;;;;;;;5022037;28;20032;-72
2023/09/10 05:46:16;;;;;;;25.80;15.50;;;;;;;;;;5020079;28;20470;-71
2023/09/10 05:48:41;;;;;;;23.00;14.23;;;;;;;;;;5019771;28;20026;-70
2023/09/10 05:51:06;;;;;;;22.20;13.55;;;;;;;;;;5020773;28;20475;-72
2023/09/10 05:53:32;;;;;;;18.95;13.38;;;;;;;;;;5017190;28;20026;-68
2023/09/10 05:55:57;;;;;;;22.77;13.25;;;;;;;;;;5024821;28;20458;-72
2023/09/10 05:58:23;;;;;;;23.45;12.98;;;;;;;;;;5028018;28;20025;-71
2023/09/10 06:00:50;;;;;;;22.60;13.05;;;;;;;;;;5028640;28;20471;-71
2023/09/10 06:03:16;;;;;;;25.20;12.05;;;;;;;;;;5026434;28;20102;-70
2023/09/10 06:05:41;;;;;;;19.40;11.93;;;;;;;;;;5028913;28;20429;-72
2023/09/10 06:08:06;;;;;;;18.67;10.65;;;;;;;;;;5027309;28;20071;-68
2023/09/10 06:10:31;;;;;;;16.67;10.82;;;;;;;;;;5028580;28;20036;-73
2023/09/10 06:12:57;;;;;;;19.95;10.40;;;;;;;;;;5027821;28;20017;-70
2023/09/10 06:15:22;;;;;;;18.70;10.07;;;;;;;;;;5024544;28;20029;-70
2023/09/10 06:17:47;;;;;;;17.58;10.30;;;;;;;;;;5016379;28;20018;-71
2023/09/10 06:20:13;;;;;;;15.55;9.75;;;;;;;;;;5020012;28;20014;-69
2023/09/10 06:22:38;;;;;;;24.85;10.05;;;;;;;;;;5020107;28;20494;-72
2023/09/10 06:25:03;;;;;;;24.23;11.97;;;;;;;;;;5021384;28;20383;-68
2023/09/10 06:27:29;;;;;;;16.45;10.05;;;;;;;;;;5019075;28;20251;-72
2023/09/10 06:29:54;;;;;;;18.80;10.30;;;;;;;;;;5019726;28;20431;-73
2023/09/10 06:32:19;;;;;;;23.02;10.52;;;;;;;;;;5019539;28;20025;-70
2023/09/10 06:34:44;;;;;;;20.38;10.38;;;;;;;;;;5019668;28;20356;-72
2023/09/10 06:37:10;;;;;;;19.92;9.60;;;;;;;;;;5020975;28;20025;-73
2023/09/10 06:39:38;;;;;;;20.20;9.60;;;;;;;;;;5023021;28;20072;-68
2023/09/10 06:42:04;;;;;;;17.80;10.80;;;;;;;;;;5021299;28;20534;-69
2023/09/10 06:44:30;;;;;;;17.63;10.80;;;;;;;;;;5021374;28;20029;-71
2023/09/10 06:46:55;;;;;;;17.88;8.85;;;;;;;;;;5019397;28;20014;-72
2023/09/10 06:49:20;;;;;;;16.63;10.13;;;;;;;;;;5019568;28;20014;-70
2023/09/10 06:51:45;;;;;;;19.73;9.35;;;;;;;;;;5023294;28;20026;-71
2023/09/10 06:54:10;;;;;;;16.40;9.00;;;;;;;;;;5011264;28;20172;-73
2023/09/10 06:56:36;;;;;;;15.35;9.07;;;;;;;;;;5011640;28;20029;-73
2023/09/10 06:59:01;;;;;;;15.88;8.85;;;;;;;;;;5018007;28;20100;-72
2023/09/10 07:01:26;;;;;;;19.80;8.52;;;;;;;;;;5021170;28;20025;-69
2023/09/10 07:03:52;;;;;;;17.85;8.73;;;;;;;;;;5017115;28;20115;-70
2023/09/10 07:06:18;;;;;;;19.20;8.75;;;;;;;;;;5020277;28;20131;-71
2023/09/10 07:08:43;;;;;;;17.70;9.15;;;;;;;;;;5018229;28;20343;-74
2023/09/10 07:11:09;;;;;;;17.60;8.65;;;;;;;;;;5019100;28;20026;-71
2023/09/10 07:13:36;;;;;;;18.10;8.05;;;;;;;;;;5015998;28;20061;-74
2023/09/10 07:16:02;;;;;;;17.83;9.18;;;;;;;;;;5020780;28;20096;-69
2023/09/10 07:18:32;;;;;;;15.55;8.40;;;;;;;;;;5031363;22;20057;-66
2023/09/10 07:20:57;;;;;;;16.02;8.40;;;;;;;;;;5027683;28;20013;-69
2023/09/10 07:23:23;;;;;;;34.88;9.85;;;;;;;;;;5028031;28;20096;-68
2023/09/10 07:25:48;;;;;;;20.63;8.90;;;;;;;;;;5028517;28;20100;-68
2023/09/10 07:28:13;;;;;;;14.30;7.78;;;;;;;;;;5021675;28;20017;-65
2023/09/10 07:30:38;;;;;;;14.88;8.15;;;;;;;;;;5028528;28;20025;-67
2023/09/10 07:33:04;;;;;;;17.30;7.70;;;;;;;;;;5026718;28;20013;-65
2023/09/10 07:35:29;;;;;;;15.43;8.00;;;;;;;;;;5028520;28;20021;-68
2023/09/10 07:37:54;;;;;;;16.17;7.65;;;;;;;;;;5028552;28;20014;-67
2023/09/10 07:40:19;;;;;;;16.08;7.68;;;;;;;;;;5027790;28;20045;-68
2023/09/10 07:42:45;;;;;;;15.05;7.78;;;;;;;;;;5028837;28;20014;-68
2023/09/10 07:45:14;;;;;;;15.38;7.82;;;;;;;;;;5022321;28;20037;-65
2023/09/10 07:47:40;;;;;;;13.05;6.65;;;;;;;;;;5025549;28;20532;-69
2023/09/10 07:50:05;;;;;;;17.85;7.88;;;;;;;;;;5020935;28;20022;-67
2023/09/10 07:52:31;;;;;;;14.23;7.65;;;;;;;;;;5027724;28;20352;-64
2023/09/10 07:54:56;;;;;;;10.82;6.35;;;;;;;;;;5018742;28;20033;-68
2023/09/10 07:57:21;;;;;;;13.98;7.18;;;;;;;;;;5025767;28;20025;-67
2023/09/10 07:59:46;;;;;;;13.70;7.30;;;;;;;;;;5028392;28;20030;-68
2023/09/10 08:02:11;;;;;;;11.18;6.70;;;;;;;;;;5024459;28;20036;-68
2023/09/10 08:04:37;;;;;;;15.60;7.10;;;;;;;;;;5022463;28;20024;-67
2023/09/10 08:07:04;;;;;;;13.38;6.05;;;;;;;;;;5030613;28;20433;-65
2023/09/10 08:09:31;;;;;;;14.73;7.60;;;;;;;;;;5029924;28;20017;-67
2023/09/10 08:11:56;;;;;;;12.98;6.55;;;;;;;;;;5024141;28;20273;-67
2023/09/10 08:14:21;;;;;;;15.88;6.93;;;;;;;;;;5031336;28;20029;-67
2023/09/10 08:16:47;;;;;;;9.88;6.07;;;;;;;;;;5032572;28;20547;-68
2023/09/10 08:19:12;;;;;;;10.15;5.95;;;;;;;;;;5030698;28;20130;-67
2023/09/10 08:21:38;;;;;;;15.55;6.15;;;;;;;;;;5032372;28;20505;-68
2023/09/10 08:24:04;;;;;;;10.18;6.38;;;;;;;;;;5032397;28;20467;-68
2023/09/10 08:26:29;;;;;;;16.45;6.68;;;;;;;;;;5032251;28;20018;-68
2023/09/10 08:28:54;;;;;;;12.30;6.38;;;;;;;;;;5031372;28;20013;-68
2023/09/10 08:31:20;;;;;;;11.02;6.38;;;;;;;;;;5032024;28;20021;-67
2023/09/10 08:33:45;;;;;;;12.23;5.95;;;;;;;;;;5032275;28;20036;-66
2023/09/10 08:36:11;;;;;;;12.93;6.18;;;;;;;;;;5031728;28;20450;-65
2023/09/10 08:38:36;;;;;;;9.38;5.20;;;;;;;;;;5027540;28;20053;-67
2023/09/10 08:41:09;;;;;;;10.18;5.00;;;;;;;;;;5030292;28;20049;-67
2023/09/10 08:43:53;;;;;;;9.98;6.03;;;;;;;;;;5027253;28;20022;-67
2023/09/10 08:46:21;;;;;;;10.02;5.72;;;;;;;;;;5031752;28;20014;-69
2023/09/10 08:48:46;;;;;;;9.20;5.60;;;;;;;;;;5043005;28;20108;-68
2023/09/10 08:51:12;;;;;;;11.93;6.00;;;;;;;;;;5027001;28;20125;-67
2023/09/10 08:53:38;;;;;;;10.73;5.85;;;;;;;;;;5020346;28;20013;-67
2023/09/10 08:56:04;;;;;;;11.35;5.93;;;;;;;;;;5029517;28;20033;-68
2023/09/10 08:58:30;;;;;;;11.40;6.00;;;;;;;;;;5031501;28;20052;-68
2023/09/10 09:00:56;;;;;;;11.65;6.47;;;;;;;;;;5026754;28;20228;-65
2023/09/10 09:03:21;;;;;;;11.35;5.85;;;;;;;;;;5028541;28;20025;-68
2023/09/10 09:05:48;;;;;;;13.55;5.38;;;;;;;;;;5030719;28;20029;-64
2023/09/10 09:08:15;;;;;;;12.25;6.00;;;;;;;;;;5046695;28;20033;-66
2023/09/10 09:10:41;;;;;;;10.70;6.07;;;;;;;;;;5031845;28;20788;-68
2023/09/10 09:13:09;;;;;;;11.38;5.78;;;;;;;;;;5030090;28;20017;-67
2023/09/10 09:15:36;;;;;;;13.38;5.68;;;;;;;;;;5030838;28;20378;-64
2023/09/10 09:18:01;;;;;;;13.57;5.68;;;;;;;;;;5031075;28;20049;-67
2023/09/10 09:20:29;;;;;;;13.43;5.28;;;;;;;;;;5031340;28;20056;-67
2023/09/10 09:22:58;;;;;;;9.38;5.70;;;;;;;;;;5031940;28;20109;-66
2023/09/10 09:25:23;;;;;;;10.13;5.53;;;;;;;;;;5031839;28;20037;-66
2023/09/10 09:27:49;;;;;;;8.52;5.25;;;;;;;;;;5024219;28;20021;-64
2023/09/10 09:30:14;;;;;;;9.30;4.72;;;;;;;;;;5027414;28;20032;-66
2023/09/10 09:32:39;;;;;;;9.65;5.22;;;;;;;;;;5031359;28;20017;-68
2023/09/10 09:35:05;;;;;;;10.27;5.50;;;;;;;;;;5030482;28;20507;-68
2023/09/10 09:37:32;;;;;;;10.93;4.85;;;;;;;;;;5024475;28;20096;-68
2023/09/10 09:39:57;;;;;;;11.10;4.60;;;;;;;;;;5024670;28;20033;-66
2023/09/10 09:42:23;;;;;;;8.98;5.05;;;;;;;;;;5024946;28;20044;-67
2023/09/10 09:44:48;;;;;;;8.95;4.20;;;;;;;;;;5025094;28;20018;-67
2023/09/10 09:47:13;;;;;;;12.18;5.28;;;;;;;;;;5025686;28;20021;-63
2023/09/10 09:49:45;;;;;;;19.35;5.38;;;;;;;;;;5027663;28;20018;-68
2023/09/10 09:52:11;;;;;;;8.25;5.15;;;;;;;;;;5029217;28;20071;-68
2023/09/10 09:54:37;;;;;;;9.07;4.72;;;;;;;;;;5025841;28;20091;-67
2023/09/10 09:57:03;;;;;;;12.60;4.85;;;;;;;;;;5026322;28;20629;-69
2023/09/10 09:59:28;;;;;;;7.20;4.38;;;;;;;;;;5030534;28;20513;-66
2023/09/10 10:01:53;;;;;;;9.27;5.00;;;;;;;;;;5028578;28;20097;-68
2023/09/10 10:04:20;;;;;;;9.50;5.07;;;;;;;;;;5029676;28;20663;-67
2023/09/10 10:06:45;;;;;;;8.38;4.40;;;;;;;;;;5025024;28;20395;-67
2023/09/10 10:09:11;;;;;;;9.00;5.03;;;;;;;;;;5028571;28;20514;-67
2023/09/10 10:11:37;;;;;;;10.07;4.43;;;;;;;;;;5030133;28;20026;-64
2023/09/10 10:14:02;;;;;;;8.02;4.53;;;;;;;;;;5029184;28;20258;-69
2023/09/10 10:16:28;;;;;;;11.38;4.70;;;;;;;;;;5029158;28;20013;-66
2023/09/10 10:18:55;;;;;;;9.13;4.55;;;;;;;;;;5030061;28;20108;-66
2023/09/10 10:21:21;;;;;;;8.05;4.60;;;;;;;;;;5029891;28;20028;-68
2023/09/10 10:23:47;;;;;;;12.95;5.30;;;;;;;;;;5027097;28;20025;-67
2023/09/10 10:26:14;;;;;;;10.07;4.43;;;;;;;;;;5030124;28;20017;-71
2023/09/10 10:28:40;;;;;;;7.18;4.40;;;;;;;;;;5025202;28;20029;-68
2023/09/10 10:31:05;;;;;;;9.82;4.57;;;;;;;;;;5029676;28;20159;-72
2023/09/10 10:33:33;;;;;;;20.03;6.43;;;;;;;;;;5029513;28;20104;-69
2023/09/10 10:36:08;;;;;;;8.95;4.45;;;;;;;;;;5030117;28;20257;-66
2023/09/10 10:38:33;;;;;;;9.05;5.00;;;;;;;;;;5025062;28;20033;-69
2023/09/10 10:41:02;;;;;;;10.27;5.47;;;;;;;;;;5029532;28;20027;-68
2023/09/10 10:43:29;;;;;;;8.23;4.93;;;;;;;;;;5029816;28;20029;-65
2023/09/10 10:45:56;;;;;;;8.75;4.30;;;;;;;;;;5026162;28;20028;-68
2023/09/10 10:48:24;;;;;;;12.60;4.97;;;;;;;;;;5032554;28;20025;-69
2023/09/10 10:50:50;;;;;;;8.68;4.28;;;;;;;;;;5030869;28;20022;-66
2023/09/10 10:53:25;;;;;;;10.07;3.83;;;;;;;;;;5028120;28;20029;-67
2023/09/10 10:55:52;;;;;;;6.70;3.88;;;;;;;;;;5025779;28;20608;-68
2023/09/10 10:58:19;;;;;;;11.40;3.87;;;;;;;;;;5025003;28;20037;-68
2023/09/10 11:00:48;;;;;;;8.25;3.97;;;;;;;;;;5026034;28;20113;-71
2023/09/10 11:03:14;;;;;;;7.32;4.28;;;;;;;;;;5025854;28;20506;-68
2023/09/10 11:05:52;;;;;;;10.27;4.13;;;;;;;;;;5026741;28;20022;-70
2023/09/10 11:08:23;;;;;;;9.57;4.35;;;;;;;;;;5021927;28;20469;-71
2023/09/10 11:10:49;;;;;;;9.85;4.25;;;;;;;;;;5029786;28;20096;-68
2023/09/10 11:13:14;;;;;;;11.30;4.07;;;;;;;;;;5027087;28;20037;-69
2023/09/10 11:16:06;;;;;;;8.65;4.78;;;;;;;;;;5020855;28;20049;-71
2023/09/10 11:18:34;;;;;;;6.32;3.80;;;;;;;;;;5018939;28;20034;-70
2023/09/10 11:21:00;;;;;;;16.30;4.90;;;;;;;;;;5029603;28;20056;-69
2023/09/10 11:23:25;;;;;;;10.15;3.90;;;;;;;;;;5029145;28;20108;-70
2023/09/10 11:25:51;;;;;;;17.27;4.68;;;;;;;;;;5017392;28;20075;-69
2023/09/10 11:28:34;;;;;;;9.40;3.78;;;;;;;;;;5030473;28;20022;-68
2023/09/10 11:31:02;;;;;;;14.60;3.72;;;;;;;;;;5030009;28;20097;-69
2023/09/10 11:33:29;;;;;;;13.07;3.50;;;;;;;;;;5028802;28;20109;-70
2023/09/10 11:35:57;;;;;;;14.23;3.67;;;;;;;;;;5029225;28;20025;-69
2023/09/10 11:38:22;;;;;;;8.60;3.92;;;;;;;;;;5027427;28;20109;-71
2023/09/10 11:40:48;;;;;;;12.27;4.43;;;;;;;;;;5030135;28;20101;-71
2023/09/10 11:43:13;;;;;;;11.30;4.05;;;;;;;;;;5019347;28;20117;-69
2023/09/10 11:45:38;;;;;;;8.80;3.47;;;;;;;;;;5024984;28;20514;-67
2023/09/10 11:48:05;;;;;;;8.55;3.75;;;;;;;;;;5025463;28;20021;-68
2023/09/10 11:50:33;;;;;;;17.25;5.03;;;;;;;;;;5026200;28;20072;-69
2023/09/10 11:52:58;;;;;;;16.90;4.00;;;;;;;;;;5024890;28;20025;-71
2023/09/10 11:55:23;;;;;;;8.25;4.15;;;;;;;;;;5024065;28;20695;-68
2023/09/10 11:57:50;;;;;;;8.68;3.63;;;;;;;;;;5024080;28;20022;-69
2023/09/10 12:00:16;;;;;;;10.23;3.70;;;;;;;;;;5025836;28;20037;-69
2023/09/10 12:02:41;;;;;;;9.75;3.72;;;;;;;;;;5024419;28;20113;-67
2023/09/10 12:05:07;;;;;;;15.60;4.32;;;;;;;;;;5023747;28;20572;-70
2023/09/10 12:07:32;;;;;;;11.45;3.88;;;;;;;;;;5023244;28;20022;-68
2023/09/10 12:09:57;;;;;;;10.52;3.85;;;;;;;;;;5025446;28;20044;-68
2023/09/10 12:12:32;;;;;;;13.10;4.32;;;;;;;;;;5024597;28;20566;-69
2023/09/10 12:14:57;;;;;;;12.23;4.25;;;;;;;;;;5025530;28;20035;-66
2023/09/10 12:17:23;;;;;;;10.05;4.10;;;;;;;;;;5022895;28;20029;-67
2023/09/10 12:19:49;;;;;;;12.40;4.05;;;;;;;;;;5024501;28;20128;-68
2023/09/10 12:22:18;;;;;;;12.88;4.35;;;;;;;;;;5023338;28;20029;-70
2023/09/10 12:24:43;;;;;;;11.88;3.78;;;;;;;;;;5024791;28;20483;-71
2023/09/10 12:27:09;;;;;;;11.90;4.72;;;;;;;;;;5022388;28;20116;-70
2023/09/10 12:29:34;;;;;;;10.27;4.25;;;;;;;;;;5025775;28;20510;-70
2023/09/10 12:32:00;;;;;;;10.30;4.07;;;;;;;;;;5030338;28;20017;-68
2023/09/10 12:34:25;;;;;;;14.25;4.05;;;;;;;;;;5026054;28;20104;-67
2023/09/10 12:36:51;;;;;;;9.63;3.60;;;;;;;;;;5023711;28;20094;-68
2023/09/10 12:39:17;;;;;;;14.30;3.88;;;;;;;;;;5025648;28;20038;-68
2023/09/10 12:41:42;;;;;;;13.43;4.40;;;;;;;;;;5025376;28;20029;-67
2023/09/10 12:44:09;;;;;;;12.95;3.75;;;;;;;;;;5025485;28;20017;-66
2023/09/10 12:46:34;;;;;;;15.00;3.92;;;;;;;;;;5024385;28;20501;-67
2023/09/10 12:48:59;;;;;;;11.17;3.83;;;;;;;;;;5025255;28;20025;-67
2023/09/10 12:51:24;;;;;;;9.27;3.45;;;;;;;;;;5025906;28;20273;-66
2023/09/10 12:53:50;;;;;;;13.55;3.83;;;;;;;;;;5024692;28;20087;-68
2023/09/10 12:56:16;;;;;;;8.93;4.05;;;;;;;;;;5024358;28;21517;-66
2023/09/10 12:58:42;;;;;;;10.82;3.72;;;;;;;;;;5024362;28;20569;-66
2023/09/10 13:01:12;;;;;;;8.27;3.85;;;;;;;;;;5024698;28;20038;-70
2023/09/10 13:03:37;;;;;;;16.25;3.53;;;;;;;;;;5023087;28;20077;-68
2023/09/10 13:06:02;;;;;;;14.40;4.07;;;;;;;;;;5020298;28;20056;-68
2023/09/10 13:08:28;;;;;;;12.18;3.50;;;;;;;;;;5024389;28;20258;-65
2023/09/10 13:10:53;;;;;;;9.30;3.28;;;;;;;;;;5024851;28;20087;-65
2023/09/10 13:13:18;;;;;;;9.82;3.90;;;;;;;;;;5025059;28;20037;-65
2023/09/10 13:15:43;;;;;;;11.02;3.80;;;;;;;;;;5023658;28;20061;-64
2023/09/10 13:18:09;;;;;;;14.18;3.83;;;;;;;;;;5023888;28;20040;-65
2023/09/10 13:20:34;;;;;;;8.83;3.93;;;;;;;;;;5050991;22;20139;-69
2023/09/10 13:22:59;;;;;;;11.13;3.60;;;;;;;;;;5039418;28;20337;-67
2023/09/10 13:25:24;;;;;;;12.35;4.35;;;;;;;;;;5041718;28;20105;-71
2023/09/10 13:27:50;;;;;;;6.73;3.87;;;;;;;;;;5040554;28;20079;-70
2023/09/10 13:30:15;;;;;;;9.47;4.20;;;;;;;;;;5028025;28;20270;-71
2023/09/10 13:32:41;;;;;;;11.90;4.03;;;;;;;;;;5022771;28;20351;-71
2023/09/10 13:35:06;;;;;;;9.68;3.90;;;;;;;;;;5020309;28;20371;-69
2023/09/10 13:37:32;;;;;;;14.25;4.97;;;;;;;;;;5019159;28;20045;-71
2023/09/10 13:39:57;;;;;;;10.70;3.60;;;;;;;;;;5023822;28;20114;-72
2023/09/10 13:42:22;;;;;;;15.80;4.35;;;;;;;;;;5022408;28;20099;-70
2023/09/10 13:44:48;;;;;;;9.83;3.70;;;;;;;;;;5022016;28;20030;-71
2023/09/10 13:47:13;;;;;;;7.68;4.00;;;;;;;;;;5020054;28;20278;-72
2023/09/10 13:49:38;;;;;;;14.57;3.53;;;;;;;;;;5019781;28;20143;-67
2023/09/10 13:52:04;;;;;;;8.27;3.90;;;;;;;;;;5020058;28;20499;-72
2023/09/10 13:54:29;;;;;;;10.70;3.88;;;;;;;;;;5024283;28;20454;-72
2023/09/10 13:56:54;;;;;;;12.07;4.25;;;;;;;;;;5019899;28;20451;-72
2023/09/10 13:59:20;;;;;;;10.77;3.72;;;;;;;;;;5024688;28;20091;-70
2023/09/10 14:01:45;;;;;;;9.47;4.43;;;;;;;;;;5020769;28;20032;-68
2023/09/10 14:04:10;;;;;;;9.38;3.90;;;;;;;;;;5020732;28;20274;-71
2023/09/10 14:06:35;;;;;;;9.73;3.83;;;;;;;;;;5018832;28;20140;-70
2023/09/10 14:09:01;;;;;;;10.63;3.80;;;;;;;;;;5021950;28;20106;-70
2023/09/10 14:11:26;;;;;;;13.07;3.90;;;;;;;;;;5020804;28;20488;-70
2023/09/10 14:13:51;;;;;;;9.02;3.50;;;;;;;;;;5022907;28;21481;-71
2023/09/10 14:16:18;;;;;;;10.02;3.95;;;;;;;;;;5020444;28;20049;-69
2023/09/10 14:18:43;;;;;;;10.45;4.18;;;;;;;;;;5021165;28;20033;-70